Time;durP1;ratioP1;P1;durP2;ratioP2;P2;SDS_P1;SDS_P2;PMS_P1;PMS_P2;Temp;Humidity;BMP_temperature;BMP_pressure;BME280_temperature;BME280_humidity;BME280_pressure;Samples;Min_cycle;Max_cycle;Signal;HPM_P1;HPM_P2
2022/05/13 00:00:14;;;;;;;11.93;11.00;;;16.40;52.70;;;;;;5060937;28;20489;-79
2022/05/13 00:02:41;;;;;;;11.75;10.85;;;16.40;52.70;;;;;;5027583;28;20029;-79
2022/05/13 00:05:07;;;;;;;12.45;11.43;;;16.30;52.80;;;;;;5043329;28;20037;-79
2022/05/13 00:07:34;;;;;;;12.30;11.40;;;16.20;53.10;;;;;;5027278;28;20384;-79
2022/05/13 00:10:05;;;;;;;12.20;11.20;;;16.20;53.10;;;;;;5018733;28;20033;-79
2022/05/13 00:12:40;;;;;;;13.02;11.43;;;16.20;53.00;;;;;;5046045;28;20049;-79
2022/05/13 00:15:09;;;;;;;12.90;11.85;;;16.30;53.00;;;;;;5020664;28;20038;-80
2022/05/13 00:17:36;;;;;;;11.93;11.23;;;16.40;53.00;;;;;;5055849;28;20036;-79
2022/05/13 00:20:03;;;;;;;12.15;11.15;;;16.20;53.00;;;;;;5008981;28;20030;-79
2022/05/13 00:22:29;;;;;;;11.75;10.85;;;16.20;53.40;;;;;;5028981;28;20032;-79
2022/05/13 00:24:55;;;;;;;15.38;11.75;;;16.30;53.40;;;;;;5027554;28;20049;-79
2022/05/13 00:27:22;;;;;;;11.98;10.98;;;16.20;53.50;;;;;;5061375;28;20041;-79
2022/05/13 00:29:48;;;;;;;11.63;10.52;;;16.20;53.40;;;;;;5029153;28;20033;-79
2022/05/13 00:32:15;;;;;;;12.02;11.02;;;16.10;53.80;;;;;;5024412;28;20037;-79
2022/05/13 00:34:41;;;;;;;12.82;10.93;;;16.10;53.80;;;;;;5012649;28;20049;-79
2022/05/13 00:37:07;;;;;;;12.27;11.00;;;16.10;53.80;;;;;;5027719;28;20036;-79
2022/05/13 00:39:33;;;;;;;11.90;10.88;;;16.10;53.80;;;;;;5028397;28;20033;-79
2022/05/13 00:42:07;;;;;;;12.15;11.05;;;16.00;53.90;;;;;;5028897;28;20029;-79
2022/05/13 00:44:34;;;;;;;12.30;11.10;;;16.10;53.90;;;;;;5025323;28;20363;-79
2022/05/13 00:47:01;;;;;;;11.70;10.80;;;16.00;53.90;;;;;;5026984;28;20390;-79
2022/05/13 00:49:27;;;;;;;14.15;10.90;;;16.00;53.90;;;;;;5027766;28;20140;-79
2022/05/13 00:51:54;;;;;;;13.48;10.68;;;16.00;53.90;;;;;;5024972;28;20042;-79
2022/05/13 00:54:20;;;;;;;11.20;10.40;;;16.00;53.80;;;;;;5040863;28;20022;-79
2022/05/13 00:56:47;;;;;;;11.23;10.40;;;16.00;53.80;;;;;;5043857;28;20045;-79
2022/05/13 00:59:15;;;;;;;11.30;10.60;;;15.90;54.10;;;;;;5027329;28;20029;-79
2022/05/13 01:01:41;;;;;;;11.98;10.90;;;16.00;53.80;;;;;;5025372;28;20398;-79
2022/05/13 01:04:09;;;;;;;11.68;10.65;;;16.00;53.90;;;;;;5029572;28;20029;-79
2022/05/13 01:06:35;;;;;;;11.40;10.43;;;15.80;53.90;;;;;;5029506;28;20049;-79
2022/05/13 01:09:02;;;;;;;11.30;10.38;;;15.70;54.20;;;;;;5027992;28;20401;-79
2022/05/13 01:11:30;;;;;;;11.18;10.20;;;15.70;54.40;;;;;;5006827;28;20041;-80
2022/05/13 01:14:01;;;;;;;10.70;9.85;;;15.60;54.80;;;;;;5013401;28;20042;-79
2022/05/13 01:16:27;;;;;;;11.75;10.43;;;15.60;54.70;;;;;;5026919;28;20042;-80
2022/05/13 01:18:53;;;;;;;11.57;10.40;;;15.80;54.60;;;;;;5027985;28;20036;-80
2022/05/13 01:21:24;;;;;;;11.98;10.57;;;15.80;54.40;;;;;;5031308;28;20034;-79
2022/05/13 01:23:52;;;;;;;13.23;10.40;;;15.80;54.40;;;;;;5028550;28;20037;-79
2022/05/13 01:26:20;;;;;;;11.45;10.50;;;15.80;54.40;;;;;;5031662;28;20026;-80
2022/05/13 01:28:50;;;;;;;11.57;10.38;;;15.80;54.60;;;;;;5017101;28;20038;-80
2022/05/13 01:31:32;;;;;;;10.82;9.95;;;15.60;55.10;;;;;;5028684;28;20045;-80
2022/05/13 01:33:59;;;;;;;11.05;10.23;;;15.60;55.20;;;;;;5030637;28;20450;-80
2022/05/13 01:36:26;;;;;;;11.18;10.05;;;15.50;55.60;;;;;;5045069;28;20387;-80
2022/05/13 01:38:52;;;;;;;10.75;9.90;;;15.50;55.70;;;;;;5029417;28;20040;-79
2022/05/13 01:41:18;;;;;;;11.88;9.63;;;15.30;56.00;;;;;;5031507;28;20506;-79
2022/05/13 01:43:45;;;;;;;10.43;9.55;;;15.30;56.30;;;;;;5029387;28;20473;-80
2022/05/13 01:46:11;;;;;;;10.88;9.85;;;15.20;56.40;;;;;;5009511;28;20045;-79
2022/05/13 01:48:37;;;;;;;10.93;9.93;;;15.20;56.40;;;;;;5031535;28;20034;-79
2022/05/13 01:51:03;;;;;;;11.07;10.00;;;15.10;56.50;;;;;;5030599;28;20053;-79
2022/05/13 01:53:29;;;;;;;13.73;10.70;;;15.00;57.00;;;;;;5030541;28;20406;-79
2022/05/13 01:55:56;;;;;;;11.88;10.73;;;15.00;57.10;;;;;;5029054;28;20033;-79
2022/05/13 01:58:22;;;;;;;11.20;10.30;;;14.90;57.10;;;;;;5029156;28;20030;-79
2022/05/13 02:00:50;;;;;;;10.85;10.05;;;14.80;57.30;;;;;;5031138;28;20392;-79
2022/05/13 02:06:03;;;;;;;11.38;9.90;;;14.60;57.90;;;;;;5031352;28;20040;-79
2022/05/13 02:08:29;;;;;;;10.95;10.10;;;14.50;58.30;;;;;;4992517;28;20485;-80
2022/05/13 02:10:56;;;;;;;11.00;10.10;;;14.40;58.50;;;;;;5015095;28;20049;-81
2022/05/13 02:13:22;;;;;;;10.48;9.70;;;14.30;58.50;;;;;;5045707;28;20029;-81
2022/05/13 02:15:48;;;;;;;11.18;10.10;;;14.30;58.60;;;;;;5012606;28;20068;-81
2022/05/13 02:18:14;;;;;;;10.77;9.90;;;14.20;58.80;;;;;;5022546;28;20096;-81
2022/05/13 02:20:40;;;;;;;11.02;9.95;;;14.20;58.90;;;;;;5031255;28;20466;-81
2022/05/13 02:23:07;;;;;;;12.75;9.25;;;14.10;59.30;;;;;;5031755;28;20398;-81
2022/05/13 02:25:33;;;;;;;10.52;9.70;;;14.20;59.50;;;;;;5015096;28;20516;-82
2022/05/13 02:28:00;;;;;;;10.18;9.35;;;14.10;59.50;;;;;;5034602;28;20052;-81
2022/05/13 02:30:27;;;;;;;10.55;9.48;;;14.10;59.70;;;;;;5027744;28;20071;-79
2022/05/13 02:32:53;;;;;;;11.02;9.60;;;14.10;59.70;;;;;;5033183;28;20030;-80
2022/05/13 02:35:19;;;;;;;10.93;9.82;;;14.30;59.40;;;;;;5030407;28;20029;-80
2022/05/13 02:37:46;;;;;;;10.90;9.85;;;14.30;59.50;;;;;;5028239;28;20510;-79
2022/05/13 02:40:12;;;;;;;11.10;9.70;;;14.50;59.00;;;;;;5028247;28;20029;-79
2022/05/13 02:42:38;;;;;;;10.70;9.80;;;14.20;59.60;;;;;;5014260;28;20046;-79
2022/05/13 02:45:09;;;;;;;10.90;9.45;;;14.20;59.60;;;;;;5028743;28;20029;-79
2022/05/13 02:47:39;;;;;;;11.07;9.93;;;14.20;59.90;;;;;;5029228;28;20493;-79
2022/05/13 02:50:17;;;;;;;10.50;9.50;;;14.20;59.90;;;;;;5043784;28;20041;-79
2022/05/13 02:52:44;;;;;;;10.50;9.75;;;14.30;59.90;;;;;;5031323;28;20053;-79
2022/05/13 02:55:10;;;;;;;10.32;9.35;;;14.30;59.90;;;;;;5029571;28;20025;-79
2022/05/13 02:57:36;;;;;;;11.00;9.77;;;14.20;60.00;;;;;;5015180;28;20037;-79
2022/05/13 03:00:06;;;;;;;10.45;9.50;;;14.20;60.10;;;;;;5028520;28;20041;-79
2022/05/13 03:02:33;;;;;;;10.77;9.60;;;14.10;60.40;;;;;;5029897;28;20394;-79
2022/05/13 03:04:59;;;;;;;10.68;9.73;;;14.20;60.20;;;;;;5010599;28;20509;-79
2022/05/13 03:07:25;;;;;;;10.13;9.32;;;14.50;59.70;;;;;;5029370;28;20029;-79
2022/05/13 03:09:51;;;;;;;16.45;10.27;;;14.70;59.20;;;;;;5014098;28;20037;-79
2022/05/13 03:12:17;;;;;;;9.80;9.13;;;14.90;58.90;;;;;;5045189;28;20049;-79
2022/05/13 03:14:43;;;;;;;11.48;10.38;;;15.00;58.60;;;;;;5030913;28;20474;-79
2022/05/13 03:17:10;;;;;;;11.02;9.80;;;15.10;58.60;;;;;;5060736;28;20037;-79
2022/05/13 03:19:36;;;;;;;11.55;10.35;;;15.20;57.80;;;;;;5028192;28;20025;-79
2022/05/13 03:22:03;;;;;;;11.43;10.20;;;15.00;58.10;;;;;;5026620;28;20049;-79
2022/05/13 03:24:29;;;;;;;10.32;9.30;;;14.70;58.40;;;;;;5048052;28;20408;-80
2022/05/13 03:26:56;;;;;;;10.98;9.98;;;14.40;59.50;;;;;;5012373;28;20046;-79
2022/05/13 03:29:22;;;;;;;12.95;10.18;;;14.30;59.80;;;;;;5030042;28;20036;-79
2022/05/13 03:31:48;;;;;;;11.18;9.70;;;14.40;59.70;;;;;;5011098;28;20053;-79
2022/05/13 03:34:14;;;;;;;11.40;9.65;;;14.40;59.70;;;;;;5027076;28;20034;-79
2022/05/13 03:36:40;;;;;;;14.23;10.23;;;14.40;59.70;;;;;;5030484;28;20371;-79
2022/05/13 03:39:06;;;;;;;11.98;10.30;;;14.30;59.90;;;;;;5027452;28;20036;-78
2022/05/13 03:41:33;;;;;;;10.88;9.88;;;14.30;59.80;;;;;;5027724;28;20033;-79
2022/05/13 03:44:00;;;;;;;11.20;10.10;;;14.40;59.80;;;;;;5010073;28;20029;-79
2022/05/13 03:46:26;;;;;;;13.43;10.18;;;14.40;59.70;;;;;;5015225;28;20029;-75
2022/05/13 03:48:52;;;;;;;12.88;9.77;;;14.40;59.80;;;;;;5030251;28;20458;-75
2022/05/13 03:51:18;;;;;;;10.70;9.77;;;14.20;60.30;;;;;;5063057;28;20049;-74
2022/05/13 03:53:44;;;;;;;11.27;9.98;;;14.20;60.50;;;;;;5027866;28;20575;-75
2022/05/13 03:56:11;;;;;;;11.98;9.70;;;14.10;60.50;;;;;;5009916;28;20038;-77
2022/05/13 03:58:37;;;;;;;11.73;9.30;;;14.10;60.60;;;;;;5025445;28;20026;-77
2022/05/13 04:01:03;;;;;;;10.27;9.40;;;13.90;61.40;;;;;;5025778;28;20041;-78
2022/05/13 04:03:29;;;;;;;10.30;8.45;;;13.70;62.70;;;;;;5029329;28;20041;-78
2022/05/13 04:08:59;;;;;;;10.27;8.85;;;13.60;62.50;;;;;;5030156;28;20029;-78
2022/05/13 04:11:30;;;;;;;9.95;8.95;;;13.60;62.80;;;;;;5028575;28;20049;-78
2022/05/13 04:16:41;;;;;;;9.32;8.43;;;13.60;62.90;;;;;;5030192;28;20416;-78
2022/05/13 04:19:07;;;;;;;9.15;8.45;;;13.50;63.00;;;;;;5027633;28;20429;-78
2022/05/13 04:21:34;;;;;;;9.90;8.90;;;13.50;62.80;;;;;;5030734;28;20037;-78
2022/05/13 04:24:02;;;;;;;10.90;8.80;;;13.60;62.90;;;;;;5028497;28;20044;-78
2022/05/13 04:26:29;;;;;;;12.13;8.68;;;13.70;62.30;;;;;;5029844;28;20037;-78
2022/05/13 04:28:55;;;;;;;9.52;8.70;;;13.90;61.90;;;;;;5032816;28;20479;-78
2022/05/13 04:31:23;;;;;;;12.05;8.93;;;14.00;61.20;;;;;;5026825;28;20045;-78
2022/05/13 04:33:49;;;;;;;10.60;9.50;;;13.90;61.80;;;;;;5030072;28;20037;-78
2022/05/13 04:36:15;;;;;;;12.52;9.18;;;13.80;61.60;;;;;;5042849;28;20489;-78
2022/05/13 04:38:41;;;;;;;9.45;8.75;;;14.00;61.30;;;;;;5029932;28;20038;-78
2022/05/13 04:43:53;;;;;;;13.02;9.35;;;14.10;60.70;;;;;;5031911;28;20038;-78
2022/05/13 04:46:19;;;;;;;11.85;9.25;;;14.10;60.90;;;;;;5027681;28;20097;-78
2022/05/13 04:48:47;;;;;;;11.00;9.50;;;13.90;61.50;;;;;;5030151;28;20032;-78
2022/05/13 04:51:13;;;;;;;11.02;9.15;;;13.80;62.00;;;;;;5027162;28;20042;-78
2022/05/13 04:53:39;;;;;;;9.90;8.98;;;13.70;62.50;;;;;;5028056;28;20026;-78
2022/05/13 04:56:07;;;;;;;10.27;9.02;;;13.70;62.50;;;;;;5030702;28;20060;-78
2022/05/13 04:58:33;;;;;;;9.90;9.00;;;13.50;63.10;;;;;;5031681;28;20053;-77
2022/05/13 05:01:00;;;;;;;10.98;9.30;;;13.50;63.10;;;;;;5014713;28;20044;-77
2022/05/13 05:03:27;;;;;;;10.35;9.35;;;13.50;63.30;;;;;;5034325;28;20085;-77
2022/05/13 05:05:54;;;;;;;14.65;9.70;;;13.60;63.30;;;;;;5032064;28;20033;-77
2022/05/13 05:08:20;;;;;;;11.43;8.80;;;13.50;63.40;;;;;;5033865;28;20022;-77
2022/05/13 05:10:46;;;;;;;14.30;9.57;;;13.50;63.90;;;;;;5014502;28;20044;-77
2022/05/13 05:13:42;;;;;;;15.45;9.80;;;13.50;63.60;;;;;;5032362;28;20395;-77
2022/05/13 05:16:08;;;;;;;12.63;10.23;;;13.60;63.50;;;;;;5030684;28;20037;-77
2022/05/13 05:18:36;;;;;;;10.30;9.38;;;13.50;63.80;;;;;;5033999;28;20029;-77
2022/05/13 05:21:03;;;;;;;11.05;9.57;;;13.60;63.40;;;;;;5012166;28;20046;-77
2022/05/13 05:23:31;;;;;;;10.77;9.70;;;13.60;63.70;;;;;;5016676;28;20387;-77
2022/05/13 05:25:57;;;;;;;11.30;10.35;;;13.50;64.10;;;;;;5032292;28;20030;-77
2022/05/13 05:28:26;;;;;;;19.02;9.77;;;13.70;63.60;;;;;;5017199;28;20036;-76
2022/05/13 05:30:52;;;;;;;11.65;10.32;;;13.80;63.20;;;;;;5029105;28;20397;-77
2022/05/13 05:33:18;;;;;;;17.50;10.63;;;14.00;62.80;;;;;;5011241;28;20490;-77
2022/05/13 05:35:44;;;;;;;11.90;10.48;;;14.10;62.30;;;;;;5029091;28;20045;-77
2022/05/13 05:38:10;;;;;;;12.23;10.27;;;14.20;62.00;;;;;;5030171;28;20041;-77
2022/05/13 05:40:37;;;;;;;12.50;11.13;;;14.30;62.00;;;;;;5029600;28;20029;-77
2022/05/13 05:43:05;;;;;;;12.95;11.48;;;14.50;61.00;;;;;;5030663;28;20061;-76
2022/05/13 05:45:31;;;;;;;12.70;11.30;;;14.80;59.90;;;;;;5032609;28;20030;-75
2022/05/13 05:47:57;;;;;;;13.80;12.45;;;14.90;60.10;;;;;;5028719;28;20038;-75
2022/05/13 05:50:23;;;;;;;14.27;12.00;;;15.10;59.40;;;;;;5021245;28;20025;-75
2022/05/13 05:52:49;;;;;;;13.45;11.95;;;15.20;59.20;;;;;;5030929;28;20048;-77
2022/05/13 05:58:02;;;;;;;13.77;12.43;;;15.40;58.40;;;;;;5036487;28;20409;-77
2022/05/13 06:00:29;;;;;;;14.63;13.25;;;15.60;58.10;;;;;;5012242;28;20057;-76
2022/05/13 06:02:55;;;;;;;14.23;13.02;;;15.70;57.90;;;;;;5015598;28;20045;-75
2022/05/13 06:05:23;;;;;;;15.18;13.48;;;15.80;57.40;;;;;;5032666;28;20042;-75
2022/05/13 06:07:50;;;;;;;14.32;13.00;;;15.90;57.50;;;;;;5028698;28;20082;-75
2022/05/13 06:10:16;;;;;;;14.50;13.02;;;15.90;57.20;;;;;;5030968;28;20032;-78
2022/05/13 06:12:43;;;;;;;14.35;12.88;;;15.90;57.40;;;;;;5031215;28;20038;-80
2022/05/13 06:15:10;;;;;;;14.20;13.15;;;15.90;57.30;;;;;;5029126;28;20033;-85
2022/05/13 06:17:44;;;;;;;14.40;13.20;;;16.10;57.20;;;;;;5010919;28;20041;-80
2022/05/13 06:20:11;;;;;;;15.60;13.90;;;16.10;56.90;;;;;;4997738;28;20037;-81
2022/05/13 06:22:37;;;;;;;15.48;14.05;;;16.10;56.80;;;;;;5024594;28;20513;-81
2022/05/13 06:25:04;;;;;;;14.77;13.77;;;16.20;57.00;;;;;;5029977;28;20053;-81
2022/05/13 06:27:30;;;;;;;15.75;14.55;;;16.40;57.40;;;;;;5050001;28;20041;-80
2022/05/13 06:29:56;;;;;;;14.93;13.68;;;16.60;56.40;;;;;;5029925;28;20474;-80
2022/05/13 06:32:22;;;;;;;15.30;13.70;;;16.80;56.00;;;;;;5012050;28;20046;-80
2022/05/13 06:34:48;;;;;;;15.57;14.10;;;16.90;55.70;;;;;;5019857;28;20485;-79
2022/05/13 06:37:14;;;;;;;16.30;14.75;;;17.00;55.80;;;;;;5030655;28;20029;-79
2022/05/13 06:39:40;;;;;;;16.55;15.32;;;17.00;55.60;;;;;;5031184;28;20398;-81
2022/05/13 06:42:07;;;;;;;17.50;14.85;;;17.20;55.50;;;;;;5011545;28;20173;-80
2022/05/13 06:44:33;;;;;;;16.45;14.90;;;17.30;55.10;;;;;;5028834;28;20387;-79
2022/05/13 06:46:59;;;;;;;15.68;14.27;;;17.50;54.60;;;;;;5026666;28;20037;-79
2022/05/13 06:49:25;;;;;;;16.42;14.90;;;17.30;54.70;;;;;;5029065;28;20069;-82
2022/05/13 06:51:51;;;;;;;17.00;15.20;;;17.40;55.10;;;;;;5031186;28;20057;-83
2022/05/13 06:54:17;;;;;;;16.67;15.32;;;17.40;55.30;;;;;;5030613;28;20037;-85
2022/05/13 06:56:43;;;;;;;16.42;14.90;;;17.50;55.10;;;;;;5029700;28;20040;-84
2022/05/13 06:59:09;;;;;;;16.80;15.30;;;17.60;54.90;;;;;;5045245;28;20038;-83
2022/05/13 07:01:36;;;;;;;16.30;15.00;;;17.70;54.60;;;;;;5023116;28;20065;-85
2022/05/13 07:04:02;;;;;;;16.58;15.07;;;17.80;54.00;;;;;;5030490;28;20029;-85
2022/05/13 07:06:29;;;;;;;16.92;15.40;;;18.00;53.40;;;;;;5044174;28;20030;-84
2022/05/13 07:08:55;;;;;;;16.10;14.95;;;18.10;52.60;;;;;;5025818;28;20463;-86
2022/05/13 07:11:21;;;;;;;17.13;15.38;;;18.10;52.90;;;;;;5030822;28;20033;-86
2022/05/13 07:13:47;;;;;;;17.08;15.52;;;18.20;52.80;;;;;;5030595;28;20045;-87
2022/05/13 07:16:14;;;;;;;17.92;16.33;;;18.30;53.50;;;;;;5025997;28;20033;-90
2022/05/13 07:18:42;;;;;;;16.92;15.77;;;18.50;53.30;;;;;;5030536;28;20466;-90
2022/05/13 07:21:08;;;;;;;18.15;16.35;;;18.70;53.10;;;;;;5010991;28;20045;-86
2022/05/13 07:23:34;;;;;;;17.58;15.98;;;18.80;51.40;;;;;;5029066;28;20508;-89
2022/05/13 07:26:00;;;;;;;16.77;15.45;;;18.70;51.10;;;;;;5027695;28;20037;-91
2022/05/13 07:28:26;;;;;;;17.63;15.90;;;18.70;51.50;;;;;;5025231;28;20026;-82
2022/05/13 07:30:53;;;;;;;17.52;15.65;;;18.70;51.40;;;;;;5013565;28;20041;-83
2022/05/13 07:33:21;;;;;;;18.30;16.92;;;18.90;51.00;;;;;;5029966;28;20045;-82
2022/05/13 07:35:47;;;;;;;18.02;16.58;;;18.90;50.40;;;;;;5027016;28;20041;-83
2022/05/13 07:38:13;;;;;;;16.48;15.18;;;18.90;50.10;;;;;;5027991;28;20120;-82
2022/05/13 07:43:24;;;;;;;17.23;15.70;;;18.80;51.70;;;;;;5029282;28;20036;-78
2022/05/13 07:45:50;;;;;;;17.42;15.90;;;18.90;50.40;;;;;;5030061;28;20034;-78
2022/05/13 07:48:16;;;;;;;17.77;16.40;;;19.20;50.70;;;;;;5028301;28;20493;-78
2022/05/13 07:50:42;;;;;;;19.55;16.13;;;19.40;48.70;;;;;;5029096;28;20045;-78
2022/05/13 07:53:08;;;;;;;17.40;16.30;;;19.40;49.30;;;;;;5029173;28;20072;-78
2022/05/13 07:55:36;;;;;;;17.98;16.38;;;19.40;47.80;;;;;;5028580;28;20041;-81
2022/05/13 07:58:02;;;;;;;16.80;15.35;;;19.20;48.00;;;;;;5021414;28;20033;-78
2022/05/13 08:00:32;;;;;;;18.60;16.90;;;19.10;48.90;;;;;;5030489;28;20030;-79
2022/05/13 08:03:03;;;;;;;18.17;16.85;;;19.20;48.20;;;;;;5026391;28;20041;-80
2022/05/13 08:05:38;;;;;;;17.30;15.90;;;19.50;48.20;;;;;;5028858;28;20025;-79
2022/05/13 08:08:08;;;;;;;18.08;16.67;;;19.50;47.40;;;;;;5044976;28;20032;-79
2022/05/13 08:10:35;;;;;;;18.25;16.85;;;19.70;47.30;;;;;;5028314;28;20418;-79
2022/05/13 08:13:01;;;;;;;17.35;16.15;;;19.70;46.50;;;;;;5011486;28;20050;-79
2022/05/13 08:15:27;;;;;;;17.50;16.10;;;19.60;46.90;;;;;;5028379;28;20060;-79
2022/05/13 08:17:53;;;;;;;17.67;16.48;;;19.60;46.70;;;;;;5024902;28;20022;-77
2022/05/13 08:20:20;;;;;;;17.83;16.52;;;19.60;46.40;;;;;;5028111;28;20273;-77
2022/05/13 08:22:46;;;;;;;17.52;16.42;;;19.50;45.90;;;;;;5028501;28;20018;-77
2022/05/13 08:25:12;;;;;;;17.95;16.77;;;19.70;46.20;;;;;;5027672;28;20084;-76
2022/05/13 08:27:39;;;;;;;18.45;17.33;;;19.80;45.60;;;;;;5034012;28;20378;-76
2022/05/13 08:30:05;;;;;;;19.00;17.60;;;20.00;44.50;;;;;;5027583;28;20506;-77
2022/05/13 08:32:31;;;;;;;18.70;17.25;;;20.10;45.10;;;;;;5028854;28;20041;-76
2022/05/13 08:34:57;;;;;;;18.65;17.35;;;20.00;44.10;;;;;;5026721;28;20030;-77
2022/05/13 08:37:24;;;;;;;18.77;17.30;;;20.10;44.60;;;;;;5012143;28;20034;-77
2022/05/13 08:39:50;;;;;;;18.20;17.17;;;20.10;44.90;;;;;;5027199;28;20378;-76
2022/05/13 08:42:22;;;;;;;18.35;17.10;;;20.30;44.50;;;;;;5009222;28;20046;-76
2022/05/13 08:44:49;;;;;;;18.48;17.20;;;20.30;44.60;;;;;;5012996;28;20042;-78
2022/05/13 08:47:22;;;;;;;19.52;18.13;;;20.50;45.30;;;;;;5005002;28;20044;-77
2022/05/13 08:49:59;;;;;;;19.45;17.90;;;20.50;42.90;;;;;;5026028;28;20028;-78
2022/05/13 08:55:27;;;;;;;18.20;17.20;;;20.70;42.50;;;;;;5024666;28;20072;-77
2022/05/13 08:57:53;;;;;;;18.80;17.67;;;20.70;41.90;;;;;;5028968;28;20394;-77
2022/05/13 09:00:27;;;;;;;18.63;17.38;;;20.60;42.10;;;;;;5042230;28;20029;-78
2022/05/13 09:02:58;;;;;;;19.92;18.30;;;20.80;42.40;;;;;;5035027;28;20025;-77
2022/05/13 09:05:45;;;;;;;;;;;21.10;41.90;;;;;;5025945;28;20034;-78
2022/05/13 09:08:11;;;;;;;20.08;18.45;;;21.10;41.10;;;;;;5014792;28;19916;-78
2022/05/13 09:11:28;;;;;;;18.60;17.30;;;21.10;42.00;;;;;;5026576;28;20022;-78
2022/05/13 09:14:05;;;;;;;18.98;17.80;;;21.10;41.10;;;;;;4993825;28;20050;-78
2022/05/13 09:16:53;;;;;;;18.98;17.67;;;21.10;39.10;;;;;;4963016;28;20039;-80
2022/05/13 09:19:28;;;;;;;19.48;18.17;;;21.10;40.70;;;;;;4995071;28;20039;-82
2022/05/13 09:21:54;;;;;;;19.70;18.30;;;21.00;40.40;;;;;;4988830;28;20046;-80
2022/05/13 09:24:20;;;;;;;19.42;18.23;;;21.10;39.90;;;;;;4990794;28;20514;-81
2022/05/13 09:26:46;;;;;;;18.30;17.08;;;21.10;40.60;;;;;;5002267;28;20076;-81
2022/05/13 09:29:16;;;;;;;19.05;17.70;;;21.40;41.00;;;;;;4985374;28;20391;-81
2022/05/13 09:31:44;;;;;;;18.70;17.58;;;21.50;39.50;;;;;;4987205;28;20045;-80
2022/05/13 09:34:28;;;;;;;1999.90;999.90;;;21.50;39.20;;;;;;4972829;28;20058;-82
2022/05/13 09:37:07;;;;;;;18.90;17.63;;;21.60;38.30;;;;;;4986292;28;20030;-80
2022/05/13 09:39:36;;;;;;;19.55;18.35;;;21.60;37.70;;;;;;4992407;28;20050;-80
2022/05/13 09:42:36;;;;;;;20.00;18.52;;;21.70;38.30;;;;;;4962905;28;20045;-80
2022/05/13 09:45:21;;;;;;;19.23;17.92;;;21.70;38.80;;;;;;4981784;28;20030;-80
2022/05/13 09:47:59;;;;;;;18.92;17.73;;;21.60;39.30;;;;;;4982951;28;20054;-78
2022/05/13 09:50:28;;;;;;;19.58;18.15;;;21.80;39.50;;;;;;5028642;28;20041;-80
2022/05/13 09:53:15;;;;;;;20.27;18.77;;;21.90;39.20;;;;;;5062238;28;20037;-78
2022/05/13 09:55:41;;;;;;;19.63;18.13;;;21.90;39.30;;;;;;5029539;28;20055;-77
2022/05/13 09:58:18;;;;;;;19.73;18.33;;;22.00;39.40;;;;;;5022461;28;20064;-81
2022/05/13 10:00:45;;;;;;;20.20;18.90;;;21.90;39.40;;;;;;5028514;28;20517;-82
2022/05/13 10:03:19;;;;;;;1999.90;999.90;;;22.00;39.40;;;;;;5029020;28;20041;-79
2022/05/13 10:05:54;;;;;;;19.95;18.55;;;22.20;38.90;;;;;;5027728;28;20029;-80
2022/05/13 10:08:23;;;;;;;1999.90;999.90;;;22.20;39.20;;;;;;5010029;28;20054;-78
2022/05/13 10:14:39;;;;;;;1999.90;999.90;;;22.60;39.10;;;;;;5058104;28;20038;-78
2022/05/13 10:17:26;;;;;;;1999.90;999.90;;;22.80;38.20;;;;;;5029615;28;20045;-81
2022/05/13 10:20:01;;;;;;;1999.90;999.90;;;22.80;37.90;;;;;;5029476;28;20044;-83
2022/05/13 10:22:29;;;;;;;1999.90;999.90;;;22.80;38.20;;;;;;5025930;28;20037;-83
2022/05/13 10:25:06;;;;;;;1999.90;999.90;;;22.80;38.20;;;;;;5014136;28;20040;-81
2022/05/13 10:27:45;;;;;;;1999.90;999.90;;;23.10;38.80;;;;;;5019076;28;20470;-80
2022/05/13 10:30:35;;;;;;;1999.90;999.90;;;23.10;38.10;;;;;;5030991;28;20042;-80
2022/05/13 10:33:06;;;;;;;1999.90;999.90;;;23.30;39.60;;;;;;5031721;28;20061;-84
2022/05/13 10:35:52;;;;;;;1999.90;999.90;;;23.50;37.80;;;;;;5017261;28;20029;-83
2022/05/13 10:38:53;;;;;;;1999.90;999.90;;;23.10;37.90;;;;;;5011879;28;20064;-83
2022/05/13 10:41:41;;;;;;;1999.90;999.90;;;22.90;39.30;;;;;;5006071;28;20671;-81
2022/05/13 10:44:15;;;;;;;1999.90;999.90;;;23.00;38.40;;;;;;4990957;28;20042;-85
2022/05/13 10:46:57;;;;;;;1999.90;999.90;;;23.40;39.00;;;;;;4991942;28;20034;-81
2022/05/13 10:49:30;;;;;;;1999.90;999.90;;;23.70;37.70;;;;;;4978854;28;20037;-82
2022/05/13 10:52:08;;;;;;;1999.90;999.90;;;23.30;38.20;;;;;;5002641;28;20037;-82
2022/05/13 10:54:49;;;;;;;1999.90;999.90;;;22.90;38.60;;;;;;4991766;28;20042;-84
2022/05/13 10:57:33;;;;;;;1999.90;999.90;;;22.80;39.40;;;;;;5010755;28;20034;-85
2022/05/13 11:00:15;;;;;;;1999.90;999.90;;;23.00;39.30;;;;;;5009065;28;20038;-84
2022/05/13 11:02:53;;;;;;;1999.90;999.90;;;23.20;38.90;;;;;;4997901;28;20418;-84
2022/05/13 11:05:25;;;;;;;1999.90;999.90;;;23.10;39.00;;;;;;5009833;28;20047;-83
2022/05/13 11:08:16;;;;;;;1999.90;999.90;;;23.30;38.20;;;;;;5007581;28;20038;-84
2022/05/13 11:10:54;;;;;;;1999.90;999.90;;;23.30;38.30;;;;;;5005864;28;20042;-84
2022/05/13 11:13:24;;;;;;;1999.90;999.90;;;23.60;38.10;;;;;;4992523;28;20153;-84
2022/05/13 11:16:06;;;;;;;1999.90;999.90;;;23.90;39.00;;;;;;4993016;28;20486;-86
2022/05/13 11:18:41;;;;;;;1999.90;999.90;;;24.30;38.20;;;;;;5018908;28;20127;-92
2022/05/13 11:21:35;;;;;;;1999.90;999.90;;;24.80;38.60;;;;;;5047525;28;20041;-90
2022/05/13 11:27:30;;;;;;;1999.90;999.90;;;24.80;36.30;;;;;;5035465;28;20470;-83
2022/05/13 11:30:21;;;;;;;1999.90;999.90;;;24.70;36.10;;;;;;5008130;28;20045;-86
2022/05/13 11:32:55;;;;;;;;;;;24.30;36.90;;;;;;5024345;28;20056;-89
2022/05/13 11:35:39;;;;;;;1999.90;999.90;;;23.90;38.30;;;;;;5011935;28;19909;-89
2022/05/13 11:38:28;;;;;;;1999.90;999.90;;;23.80;38.10;;;;;;5023791;28;20827;-84
2022/05/13 11:41:08;;;;;;;1999.90;999.90;;;24.00;38.80;;;;;;5027388;28;20033;-84
2022/05/13 11:43:53;;;;;;;1999.90;999.90;;;24.50;37.50;;;;;;5028355;28;20040;-84
2022/05/13 11:46:29;;;;;;;1999.90;999.90;;;24.60;37.20;;;;;;5013904;28;20056;-84
2022/05/13 11:49:16;;;;;;;1999.90;999.90;;;24.80;36.30;;;;;;5028233;28;20399;-84
2022/05/13 11:51:42;;;;;;;1999.90;999.90;;;24.80;36.50;;;;;;5028457;28;20046;-84
2022/05/13 11:54:24;;;;;;;1999.90;999.90;;;24.50;37.50;;;;;;5028213;28;20045;-84
2022/05/13 11:57:16;;;;;;;1999.90;999.90;;;24.70;36.90;;;;;;5013023;28;20044;-84
2022/05/13 11:59:48;;;;;;;1999.90;999.90;;;24.50;36.40;;;;;;5028658;28;20038;-85
2022/05/13 12:02:47;;;;;;;1999.90;999.90;;;24.60;37.40;;;;;;5027892;28;20045;-84
2022/05/13 12:05:16;;;;;;;1999.90;999.90;;;24.90;38.00;;;;;;5029143;28;20654;-84
2022/05/13 12:07:51;;;;;;;1999.90;999.90;;;25.00;36.60;;;;;;5028980;28;20025;-83
2022/05/13 12:10:18;;;;;;;1999.90;999.90;;;25.10;35.80;;;;;;5007645;28;20042;-83
2022/05/13 12:12:50;;;;;;;1999.90;999.90;;;24.80;35.90;;;;;;5063117;28;20089;-84
2022/05/13 12:15:22;;;;;;;1999.90;999.90;;;24.80;36.50;;;;;;5029350;28;20030;-84
2022/05/13 12:18:07;;;;;;;1999.90;999.90;;;24.80;36.30;;;;;;5028294;28;20033;-84
2022/05/13 12:20:51;;;;;;;1999.90;999.90;;;24.60;36.60;;;;;;5026670;28;20036;-84
2022/05/13 12:23:25;;;;;;;1999.90;999.90;;;24.80;37.90;;;;;;5044614;28;20037;-84
2022/05/13 12:25:56;;;;;;;1999.90;999.90;;;25.10;37.90;;;;;;5028029;28;20026;-84
2022/05/13 12:28:24;;;;;;;1999.90;999.90;;;25.50;37.90;;;;;;5031192;28;20030;-84
2022/05/13 12:30:51;;;;;;;1999.90;999.90;;;25.90;37.60;;;;;;5009757;28;20402;-84
2022/05/13 12:33:20;;;;;;;1999.90;999.90;;;26.20;35.50;;;;;;5045284;28;20052;-84
2022/05/13 12:39:08;;;;;;;1999.90;999.90;;;26.10;34.30;;;;;;5030146;28;20483;-83
2022/05/13 12:41:43;;;;;;;1999.90;999.90;;;25.70;35.00;;;;;;5043163;28;20041;-84
2022/05/13 12:44:31;;;;;;;1999.90;999.90;;;25.30;35.60;;;;;;5029001;28;20025;-84
2022/05/13 12:47:13;;;;;;;1999.90;999.90;;;24.80;36.40;;;;;;5027485;28;20041;-83
2022/05/13 12:49:48;;;;;;;1999.90;999.90;;;24.80;37.10;;;;;;5029484;28;20457;-83
2022/05/13 12:52:26;;;;;;;1999.90;999.90;;;24.60;37.00;;;;;;5023394;28;20041;-84
2022/05/13 12:55:01;;;;;;;1999.90;999.90;;;24.50;37.90;;;;;;5027857;28;20056;-83
2022/05/13 12:57:50;;;;;;;1999.90;999.90;;;24.50;37.20;;;;;;5027869;28;20462;-83
2022/05/13 13:00:22;;;;;;;1999.90;999.90;;;24.60;37.50;;;;;;5027963;28;20041;-82
2022/05/13 13:02:51;;;;;;;1999.90;999.90;;;24.60;37.30;;;;;;5026842;28;20030;-83
2022/05/13 13:05:27;;;;;;;1999.90;999.90;;;24.70;37.70;;;;;;5027877;28;20028;-83
2022/05/13 13:07:54;;;;;;;1999.90;999.90;;;25.00;37.90;;;;;;5027889;28;20028;-82